AWC32C EGCC-EHAM
Flight info
| Callsign | AWC32C |
|---|---|
| Flight time | 0h 50m |
| Altitude | 31000 |
| Route | SONEX L975 DESIG L603 LAMSO |
| Aircraft | A320/M-SDE3FGHIRWY/LB1 |
Departure
| Time | 2026-05-04 14:51 |
|---|---|
| Airport | Manchester Airport (EGCC) |
Arrival
| Time | 2026-05-04 15:41 |
|---|---|
| Airport | Amsterdam Airport Schiphol (EHAM) |
| Time | Latitude | Longitude | Altitude | Speed | Heading |
|---|---|---|---|---|---|
| 2026-05-04 14:25 | 53.35931 | -2.27516 | 245 ft | 0 kts | 95° |
| 2026-05-04 14:30 | 53.35931 | -2.27517 | 245 ft | 0 kts | 95° |
| 2026-05-04 14:40 | 53.35932 | -2.27533 | 245 ft | 2 kts | 95° |
| 2026-05-04 14:41 | 53.35933 | -2.27561 | 246 ft | 2 kts | 95° |
| 2026-05-04 14:41 | 53.35935 | -2.27589 | 246 ft | 2 kts | 95° |
| 2026-05-04 14:41 | 53.35947 | -2.27620 | 247 ft | 0 kts | 186° |
| 2026-05-04 14:44 | 53.35939 | -2.27621 | 247 ft | 3 kts | 186° |
| 2026-05-04 14:44 | 53.35910 | -2.27630 | 247 ft | 6 kts | 191° |
| 2026-05-04 14:44 | 53.35867 | -2.27645 | 247 ft | 7 kts | 190° |
| 2026-05-04 14:45 | 53.35811 | -2.27658 | 247 ft | 9 kts | 186° |
| 2026-05-04 14:45 | 53.35742 | -2.27646 | 247 ft | 11 kts | 162° |
| 2026-05-04 14:45 | 53.35687 | -2.27609 | 247 ft | 0 kts | 151° |
| 2026-05-04 14:45 | 53.35671 | -2.27591 | 247 ft | 6 kts | 142° |
| 2026-05-04 14:46 | 53.35629 | -2.27533 | 246 ft | 8 kts | 140° |
| 2026-05-04 14:46 | 53.35587 | -2.27477 | 245 ft | 5 kts | 143° |
| 2026-05-04 14:46 | 53.35580 | -2.27469 | 245 ft | 0 kts | 142° |
| 2026-05-04 14:47 | 53.35576 | -2.27463 | 245 ft | 4 kts | 142° |
| 2026-05-04 14:47 | 53.35540 | -2.27414 | 244 ft | 9 kts | 140° |
| 2026-05-04 14:48 | 53.35488 | -2.27342 | 245 ft | 10 kts | 140° |
| 2026-05-04 14:48 | 53.35427 | -2.27258 | 244 ft | 13 kts | 141° |
| 2026-05-04 14:48 | 53.35346 | -2.27189 | 247 ft | 12 kts | 174° |
| 2026-05-04 14:48 | 53.35275 | -2.27206 | 254 ft | 9 kts | 192° |
| 2026-05-04 14:49 | 53.35221 | -2.27226 | 260 ft | 8 kts | 191° |
| 2026-05-04 14:49 | 53.35169 | -2.27243 | 266 ft | 6 kts | 192° |
| 2026-05-04 14:49 | 53.35124 | -2.27258 | 270 ft | 10 kts | 190° |
| 2026-05-04 14:49 | 53.35045 | -2.27288 | 271 ft | 13 kts | 202° |
| 2026-05-04 14:50 | 53.35003 | -2.27339 | 269 ft | 0 kts | 228° |
| 2026-05-04 14:50 | 53.34962 | -2.27418 | 269 ft | 37 kts | 230° |
| 2026-05-04 14:50 | 53.34653 | -2.28058 | 261 ft | 101 kts | 231° |
| 2026-05-04 14:50 | 53.34095 | -2.29205 | 248 ft | 150 kts | 231° |
| 2026-05-04 14:51 | 53.33402 | -2.30649 | 578 ft | 162 kts | 231° |
| 2026-05-04 14:51 | 53.32710 | -2.32105 | 1260 ft | 159 kts | 231° |
| 2026-05-04 14:51 | 53.32019 | -2.33604 | 1704 ft | 171 kts | 238° |
| 2026-05-04 14:51 | 53.31510 | -2.35537 | 1932 ft | 193 kts | 256° |
| 2026-05-04 14:52 | 53.31404 | -2.37893 | 2193 ft | 214 kts | 277° |
| 2026-05-04 14:52 | 53.31860 | -2.40376 | 2572 ft | 232 kts | 300° |
| 2026-05-04 14:52 | 53.32899 | -2.42466 | 3140 ft | 247 kts | 322° |
| 2026-05-04 14:52 | 53.34485 | -2.43733 | 3804 ft | 258 kts | 348° |
| 2026-05-04 14:53 | 53.36296 | -2.43844 | 4621 ft | 264 kts | 2° |
| 2026-05-04 14:53 | 53.38151 | -2.43702 | 4929 ft | 266 kts | 2° |
| 2026-05-04 14:53 | 53.39999 | -2.43793 | 4998 ft | 265 kts | 347° |
| 2026-05-04 14:53 | 53.41758 | -2.44662 | 5007 ft | 265 kts | 342° |
| 2026-05-04 14:54 | 53.43536 | -2.45480 | 5003 ft | 265 kts | 353° |
| 2026-05-04 14:54 | 53.45365 | -2.45287 | 4993 ft | 265 kts | 15° |
| 2026-05-04 14:54 | 53.47017 | -2.43911 | 4988 ft | 266 kts | 38° |
| 2026-05-04 14:54 | 53.48221 | -2.41556 | 4990 ft | 267 kts | 62° |
| 2026-05-04 14:55 | 53.48782 | -2.38633 | 4991 ft | 268 kts | 84° |
| 2026-05-04 14:55 | 53.48634 | -2.35458 | 4988 ft | 273 kts | 103° |
| 2026-05-04 14:55 | 53.48336 | -2.32343 | 4985 ft | 270 kts | 91° |
| 2026-05-04 14:55 | 53.48529 | -2.29214 | 4992 ft | 269 kts | 80° |
| 2026-05-04 14:56 | 53.48851 | -2.26107 | 4991 ft | 269 kts | 79° |
| 2026-05-04 14:56 | 53.49182 | -2.23052 | 4989 ft | 269 kts | 79° |
| 2026-05-04 14:56 | 53.49516 | -2.19958 | 4988 ft | 269 kts | 79° |
| 2026-05-04 14:56 | 53.49843 | -2.16860 | 4992 ft | 269 kts | 79° |
| 2026-05-04 14:57 | 53.50061 | -2.14772 | 5225 ft | 275 kts | 79° |
| 2026-05-04 14:57 | 53.50389 | -2.11615 | 6191 ft | 274 kts | 80° |
| 2026-05-04 14:57 | 53.50720 | -2.08441 | 7039 ft | 277 kts | 80° |
| 2026-05-04 14:57 | 53.51057 | -2.05224 | 7834 ft | 281 kts | 79° |
| 2026-05-04 14:58 | 53.51401 | -2.01955 | 8612 ft | 286 kts | 79° |
| 2026-05-04 14:58 | 53.51748 | -1.98675 | 9395 ft | 290 kts | 79° |
| 2026-05-04 14:58 | 53.52102 | -1.95300 | 10154 ft | 294 kts | 79° |
| 2026-05-04 14:58 | 53.52409 | -1.91812 | 10542 ft | 312 kts | 85° |
| 2026-05-04 14:59 | 53.52353 | -1.88020 | 10701 ft | 336 kts | 97° |
| 2026-05-04 14:59 | 53.51820 | -1.84096 | 11071 ft | 349 kts | 107° |
| 2026-05-04 14:59 | 53.50410 | -1.76217 | 12343 ft | 357 kts | 107° |
| 2026-05-04 15:00 | 53.49705 | -1.72187 | 13005 ft | 361 kts | 107° |
| 2026-05-04 15:00 | 53.48994 | -1.68120 | 13668 ft | 364 kts | 107° |
| 2026-05-04 15:00 | 53.48274 | -1.64011 | 14286 ft | 367 kts | 107° |
| 2026-05-04 15:01 | 53.46816 | -1.55766 | 15460 ft | 373 kts | 107° |
| 2026-05-04 15:01 | 53.46064 | -1.51570 | 16027 ft | 376 kts | 107° |
| 2026-05-04 15:01 | 53.45304 | -1.47340 | 16587 ft | 379 kts | 107° |
| 2026-05-04 15:01 | 53.44537 | -1.43082 | 17168 ft | 382 kts | 107° |
| 2026-05-04 15:02 | 53.43763 | -1.38794 | 17776 ft | 385 kts | 107° |
| 2026-05-04 15:02 | 53.42987 | -1.34523 | 18365 ft | 388 kts | 107° |
| 2026-05-04 15:02 | 53.42198 | -1.30175 | 18910 ft | 390 kts | 107° |
| 2026-05-04 15:02 | 53.41404 | -1.25803 | 19490 ft | 392 kts | 107° |
| 2026-05-04 15:03 | 53.40607 | -1.21408 | 20072 ft | 394 kts | 107° |
| 2026-05-04 15:03 | 53.39806 | -1.16996 | 20691 ft | 395 kts | 107° |
| 2026-05-04 15:03 | 53.39004 | -1.12581 | 21246 ft | 397 kts | 107° |
| 2026-05-04 15:03 | 53.38205 | -1.08203 | 21775 ft | 399 kts | 107° |
| 2026-05-04 15:04 | 53.37387 | -1.03733 | 22298 ft | 400 kts | 107° |
| 2026-05-04 15:04 | 53.36561 | -0.99248 | 22794 ft | 403 kts | 107° |
| 2026-05-04 15:04 | 53.35730 | -0.94742 | 23280 ft | 405 kts | 107° |
| 2026-05-04 15:04 | 53.34895 | -0.90215 | 23746 ft | 407 kts | 107° |
| 2026-05-04 15:05 | 53.34063 | -0.85723 | 24144 ft | 409 kts | 107° |
| 2026-05-04 15:05 | 53.33215 | -0.81166 | 24546 ft | 411 kts | 106° |
| 2026-05-04 15:05 | 53.32354 | -0.76564 | 24937 ft | 413 kts | 107° |
| 2026-05-04 15:05 | 53.31490 | -0.71964 | 25307 ft | 414 kts | 106° |
| 2026-05-04 15:06 | 53.30627 | -0.67353 | 25668 ft | 416 kts | 106° |
| 2026-05-04 15:06 | 53.29759 | -0.62715 | 26024 ft | 418 kts | 106° |
| 2026-05-04 15:06 | 53.28897 | -0.58109 | 26388 ft | 420 kts | 106° |
| 2026-05-04 15:07 | 53.27134 | -0.48746 | 27112 ft | 423 kts | 106° |
| 2026-05-04 15:07 | 53.26241 | -0.44028 | 27465 ft | 425 kts | 106° |
| 2026-05-04 15:07 | 53.25351 | -0.39348 | 27814 ft | 427 kts | 106° |
| 2026-05-04 15:07 | 53.24443 | -0.34591 | 28141 ft | 430 kts | 107° |
| 2026-05-04 15:08 | 53.23527 | -0.29798 | 28464 ft | 432 kts | 107° |
| 2026-05-04 15:08 | 53.22606 | -0.24990 | 28778 ft | 434 kts | 107° |
| 2026-05-04 15:08 | 53.21698 | -0.20246 | 29214 ft | 433 kts | 107° |
| 2026-05-04 15:08 | 53.20781 | -0.15455 | 29703 ft | 432 kts | 107° |
| 2026-05-04 15:09 | 53.19862 | -0.10678 | 30189 ft | 430 kts | 107° |
| 2026-05-04 15:09 | 53.18943 | -0.05925 | 30613 ft | 429 kts | 107° |
| 2026-05-04 15:09 | 53.18020 | -0.01172 | 30961 ft | 429 kts | 107° |
| 2026-05-04 15:10 | 53.16171 | 0.08338 | 31063 ft | 434 kts | 108° |
| 2026-05-04 15:10 | 53.15237 | 0.13129 | 31064 ft | 434 kts | 108° |
| 2026-05-04 15:11 | 53.12436 | 0.27434 | 31062 ft | 434 kts | 108° |
| 2026-05-04 15:11 | 53.10550 | 0.37000 | 31062 ft | 434 kts | 108° |
| 2026-05-04 15:12 | 53.08646 | 0.46562 | 31063 ft | 434 kts | 108° |
| 2026-05-04 15:12 | 53.06743 | 0.56112 | 31049 ft | 435 kts | 109° |
| 2026-05-04 15:13 | 53.04842 | 0.65632 | 31033 ft | 437 kts | 109° |
| 2026-05-04 15:13 | 53.02906 | 0.75256 | 31029 ft | 438 kts | 109° |
| 2026-05-04 15:14 | 53.00965 | 0.84829 | 31033 ft | 439 kts | 109° |
| 2026-05-04 15:14 | 52.99001 | 0.94451 | 31025 ft | 441 kts | 110° |
| 2026-05-04 15:15 | 52.97369 | 1.04318 | 31017 ft | 445 kts | 102° |
| 2026-05-04 15:15 | 52.96229 | 1.14380 | 31017 ft | 447 kts | 102° |
| 2026-05-04 15:16 | 52.94455 | 1.29657 | 31025 ft | 450 kts | 103° |
| 2026-05-04 15:17 | 52.92648 | 1.44963 | 31029 ft | 451 kts | 103° |
| 2026-05-04 15:17 | 52.90827 | 1.60248 | 31024 ft | 452 kts | 103° |
| 2026-05-04 15:18 | 52.89592 | 1.70539 | 31026 ft | 454 kts | 103° |
| 2026-05-04 15:19 | 52.87727 | 1.85890 | 31026 ft | 454 kts | 103° |
| 2026-05-04 15:19 | 52.85835 | 2.01323 | 31034 ft | 455 kts | 103° |
| 2026-05-04 15:20 | 52.84565 | 2.11589 | 31026 ft | 456 kts | 104° |
| 2026-05-04 15:20 | 52.83284 | 2.21853 | 29875 ft | 462 kts | 104° |
| 2026-05-04 15:21 | 52.82624 | 2.27112 | 28740 ft | 468 kts | 104° |
| 2026-05-04 15:21 | 52.81958 | 2.32385 | 27878 ft | 468 kts | 104° |
| 2026-05-04 15:21 | 52.80647 | 2.42749 | 26714 ft | 457 kts | 104° |
| 2026-05-04 15:22 | 52.79997 | 2.47887 | 26151 ft | 452 kts | 104° |
| 2026-05-04 15:22 | 52.79351 | 2.52965 | 25596 ft | 447 kts | 104° |
| 2026-05-04 15:22 | 52.78078 | 2.62882 | 24559 ft | 439 kts | 104° |
| 2026-05-04 15:23 | 52.77439 | 2.67812 | 24062 ft | 436 kts | 104° |
| 2026-05-04 15:23 | 52.76802 | 2.72694 | 23553 ft | 434 kts | 104° |
| 2026-05-04 15:23 | 52.76167 | 2.77566 | 23021 ft | 430 kts | 104° |
| 2026-05-04 15:23 | 52.75539 | 2.82378 | 22538 ft | 426 kts | 104° |
| 2026-05-04 15:24 | 52.73906 | 2.91506 | 21836 ft | 413 kts | 110° |
| 2026-05-04 15:24 | 52.72122 | 3.00480 | 20857 ft | 409 kts | 110° |
| 2026-05-04 15:25 | 52.71098 | 3.04787 | 20592 ft | 398 kts | 120° |
| 2026-05-04 15:25 | 52.69791 | 3.08732 | 20502 ft | 384 kts | 121° |
| 2026-05-04 15:25 | 52.68529 | 3.12549 | 20415 ft | 371 kts | 121° |
| 2026-05-04 15:26 | 52.66094 | 3.19878 | 19779 ft | 365 kts | 121° |
| 2026-05-04 15:26 | 52.64869 | 3.23548 | 19314 ft | 365 kts | 121° |
| 2026-05-04 15:26 | 52.62409 | 3.30881 | 18364 ft | 364 kts | 120° |
| 2026-05-04 15:27 | 52.61181 | 3.34531 | 17825 ft | 363 kts | 120° |
| 2026-05-04 15:27 | 52.58759 | 3.41714 | 16850 ft | 359 kts | 120° |
| 2026-05-04 15:28 | 52.56341 | 3.48875 | 15877 ft | 356 kts | 120° |
| 2026-05-04 15:28 | 52.55134 | 3.52443 | 15381 ft | 355 kts | 120° |
| 2026-05-04 15:28 | 52.52738 | 3.59492 | 14397 ft | 354 kts | 120° |
| 2026-05-04 15:29 | 52.51532 | 3.63028 | 13903 ft | 354 kts | 120° |
| 2026-05-04 15:30 | 52.47148 | 3.75861 | 12063 ft | 347 kts | 121° |
| 2026-05-04 15:30 | 52.43627 | 3.86117 | 10604 ft | 342 kts | 120° |
| 2026-05-04 15:31 | 52.41350 | 3.92739 | 10240 ft | 321 kts | 121° |
| 2026-05-04 15:31 | 52.40270 | 3.95877 | 10116 ft | 310 kts | 121° |
| 2026-05-04 15:32 | 52.37220 | 4.04724 | 9177 ft | 290 kts | 121° |
| 2026-05-04 15:32 | 52.35253 | 4.10409 | 8320 ft | 284 kts | 122° |
| 2026-05-04 15:33 | 52.33295 | 4.16034 | 7499 ft | 284 kts | 121° |
| 2026-05-04 15:34 | 52.30368 | 4.24442 | 6309 ft | 280 kts | 121° |
| 2026-05-04 15:34 | 52.29417 | 4.27162 | 5993 ft | 267 kts | 120° |
| 2026-05-04 15:34 | 52.27655 | 4.32207 | 5216 ft | 252 kts | 121° |
| 2026-05-04 15:35 | 52.25952 | 4.37078 | 4404 ft | 239 kts | 120° |
| 2026-05-04 15:35 | 52.25127 | 4.39420 | 3996 ft | 236 kts | 120° |
| 2026-05-04 15:35 | 52.24318 | 4.41710 | 3625 ft | 229 kts | 120° |
| 2026-05-04 15:36 | 52.22794 | 4.46040 | 3205 ft | 204 kts | 120° |
| 2026-05-04 15:36 | 52.22113 | 4.47970 | 3204 ft | 191 kts | 120° |
| 2026-05-04 15:36 | 52.21523 | 4.49902 | 3082 ft | 189 kts | 108° |
| 2026-05-04 15:37 | 52.21307 | 4.52001 | 3000 ft | 187 kts | 89° |
| 2026-05-04 15:37 | 52.21485 | 4.54034 | 2779 ft | 178 kts | 70° |
| 2026-05-04 15:37 | 52.22022 | 4.55765 | 2568 ft | 170 kts | 58° |
| 2026-05-04 15:37 | 52.22616 | 4.57377 | 2329 ft | 158 kts | 57° |
| 2026-05-04 15:38 | 52.23177 | 4.58849 | 2123 ft | 149 kts | 57° |
| 2026-05-04 15:38 | 52.23722 | 4.60268 | 1917 ft | 145 kts | 55° |
| 2026-05-04 15:38 | 52.24259 | 4.61661 | 1732 ft | 143 kts | 53° |
| 2026-05-04 15:38 | 52.24791 | 4.63039 | 1537 ft | 142 kts | 53° |
| 2026-05-04 15:39 | 52.25311 | 4.64386 | 1352 ft | 141 kts | 52° |
| 2026-05-04 15:39 | 52.25835 | 4.65744 | 1152 ft | 140 kts | 54° |
| 2026-05-04 15:39 | 52.26873 | 4.68433 | 780 ft | 138 kts | 53° |
| 2026-05-04 15:40 | 52.27378 | 4.69745 | 597 ft | 135 kts | 56° |
| 2026-05-04 15:40 | 52.27871 | 4.71024 | 418 ft | 135 kts | 57° |
| 2026-05-04 15:40 | 52.28375 | 4.72332 | 242 ft | 134 kts | 56° |
| 2026-05-04 15:40 | 52.28871 | 4.73611 | 59 ft | 133 kts | 57° |
| 2026-05-04 15:41 | 52.29334 | 4.74829 | 16 ft | 113 kts | 56° |
| 2026-05-04 15:41 | 52.29593 | 4.75496 | 16 ft | 26 kts | 56° |
| 2026-05-04 15:41 | 52.29654 | 4.75647 | 17 ft | 18 kts | 53° |
| 2026-05-04 15:41 | 52.29755 | 4.75778 | 15 ft | 14 kts | 31° |
| 2026-05-04 15:42 | 52.29837 | 4.75849 | 16 ft | 12 kts | 27° |
| 2026-05-04 15:42 | 52.29900 | 4.75904 | 12 ft | 6 kts | 27° |
| 2026-05-04 15:42 | 52.29906 | 4.75908 | 12 ft | 0 kts | 26° |
| 2026-05-04 15:43 | 52.29913 | 4.75914 | 12 ft | 5 kts | 26° |
| 2026-05-04 15:44 | 52.29962 | 4.75952 | 13 ft | 10 kts | 21° |
| 2026-05-04 15:44 | 52.30031 | 4.75932 | 12 ft | 5 kts | 318° |
| 2026-05-04 15:44 | 52.30072 | 4.75861 | 9 ft | 12 kts | 318° |
| 2026-05-04 15:44 | 52.30151 | 4.75780 | 6 ft | 14 kts | 329° |
| 2026-05-04 15:45 | 52.30208 | 4.75709 | 2 ft | 7 kts | 297° |
| 2026-05-04 15:45 | 52.30205 | 4.75670 | 2 ft | 6 kts | 243° |
| 2026-05-04 15:45 | 52.30196 | 4.75646 | 2 ft | 0 kts | 237° |